Time;durP1;ratioP1;P1;durP2;ratioP2;P2;SDS_P1;SDS_P2;PMS_P1;PMS_P2;Temp;Humidity;BMP_temperature;BMP_pressure;BME280_temperature;BME280_humidity;BME280_pressure;Samples;Min_cycle;Max_cycle;Signal;HPM_P1;HPM_P2
2023/03/30 21:49:12;;;;;;;6.50;4.50;;;;;;;0.65;100.00;99305.92;102135;1291;600829;-60
2023/03/30 21:51:41;;;;;;;6.00;4.60;;;;;;;0.67;100.00;99306.22;105739;1257;61725;-60
2023/03/30 21:54:11;;;;;;;6.50;4.70;;;;;;;0.64;100.00;99302.40;105952;1253;61591;-62
2023/03/30 21:56:40;;;;;;;5.70;4.30;;;;;;;0.63;100.00;99301.81;105675;1253;73775;-60
2023/03/30 21:59:09;;;;;;;6.50;5.00;;;;;;;0.62;100.00;99299.53;106051;1257;68649;-60
2023/03/30 22:01:38;;;;;;;6.50;4.60;;;;;;;0.62;100.00;99300.55;105487;1253;189117;-61
2023/03/30 22:04:07;;;;;;;6.50;4.40;;;;;;;0.61;100.00;99298.54;106019;1251;62748;-61
2023/03/30 22:06:37;;;;;;;6.50;4.70;;;;;;;0.61;100.00;99296.01;106142;1255;61918;-60
2023/03/30 22:09:05;;;;;;;6.30;4.60;;;;;;;0.62;100.00;99295.59;105999;1255;73228;-61
2023/03/30 22:11:34;;;;;;;5.50;4.20;;;;;;;0.61;100.00;99298.90;105828;1256;67536;-60
2023/03/30 22:14:04;;;;;;;5.80;4.10;;;;;;;0.62;100.00;99297.83;106105;1251;74308;-62
2023/03/30 22:16:35;;;;;;;5.00;3.80;;;;;;;0.62;100.00;99293.89;105819;1255;62829;-61
2023/03/30 22:19:12;;;;;;;5.60;4.10;;;;;;;0.62;100.00;99288.89;105637;1251;60976;-61
2023/03/30 22:21:41;;;;;;;6.40;4.30;;;;;;;0.63;100.00;99288.31;106345;1251;74526;-60
2023/03/30 22:24:10;;;;;;;6.00;4.10;;;;;;;0.63;100.00;99285.04;105979;1251;69015;-62
2023/03/30 22:26:39;;;;;;;5.80;3.90;;;;;;;0.62;100.00;99285.50;105853;1251;74150;-61
2023/03/30 22:29:08;;;;;;;4.80;3.30;;;;;;;0.61;100.00;99281.29;106028;1251;62677;-61
2023/03/30 22:31:41;;;;;;;5.90;3.90;;;;;;;0.61;100.00;99278.73;105922;1256;61944;-61
2023/03/30 22:34:10;;;;;;;5.90;3.80;;;;;;;0.60;100.00;99278.80;105850;1256;73210;-62
2023/03/30 22:36:39;;;;;;;5.50;3.50;;;;;;;0.60;100.00;99278.83;105826;1251;68542;-61
2023/03/30 22:39:13;;;;;;;5.10;3.40;;;;;;;0.60;100.00;99276.96;105836;1251;73967;-61
2023/03/30 22:41:42;;;;;;;4.70;3.40;;;;;;;0.60;100.00;99276.80;105866;1256;61690;-62
2023/03/30 22:44:11;;;;;;;4.90;3.70;;;;;;;0.60;100.00;99278.29;105988;1252;61596;-63
2023/03/30 22:46:39;;;;;;;5.10;3.40;;;;;;;0.61;100.00;99277.08;105973;1251;74592;-61
2023/03/30 22:49:08;;;;;;;5.70;3.60;;;;;;;0.60;100.00;99274.72;106120;1256;68579;-61
2023/03/30 22:51:37;;;;;;;4.70;3.40;;;;;;;0.60;100.00;99272.45;105936;1256;73199;-62
2023/03/30 22:54:06;;;;;;;5.20;3.70;;;;;;;0.62;100.00;99272.90;106104;1256;61719;-63
2023/03/30 22:56:36;;;;;;;5.40;3.80;;;;;;;0.61;100.00;99271.58;105774;1255;61890;-62
2023/03/30 22:59:05;;;;;;;6.10;4.20;;;;;;;0.62;100.00;99271.84;106228;1253;73413;-62
2023/03/30 23:01:35;;;;;;;5.20;3.70;;;;;;;0.62;100.00;99269.23;105973;1254;68874;-63
2023/03/30 23:04:05;;;;;;;5.30;3.60;;;;;;;0.64;100.00;99271.94;105915;1256;72509;-64
2023/03/30 23:06:35;;;;;;;5.50;3.60;;;;;;;0.66;100.00;99270.77;105839;1252;61951;-62
2023/03/30 23:09:03;;;;;;;5.30;3.50;;;;;;;0.67;100.00;99264.86;105929;1256;59821;-62
2023/03/30 23:11:33;;;;;;;5.70;3.70;;;;;;;0.69;100.00;99265.70;105762;1253;72683;-62
2023/03/30 23:14:04;;;;;;;4.80;3.50;;;;;;;0.69;100.00;99268.27;106071;1255;68300;-61
2023/03/30 23:16:34;;;;;;;6.60;4.40;;;;;;;0.69;100.00;99263.10;105568;1253;74475;-61
2023/03/30 23:19:06;;;;;;;5.80;4.00;;;;;;;0.69;100.00;99261.08;105867;1256;62632;-63
2023/03/30 23:21:35;;;;;;;5.20;3.60;;;;;;;0.68;100.00;99261.67;105850;1253;61956;-63
2023/03/30 23:24:10;;;;;;;4.70;3.30;;;;;;;0.67;100.00;99261.56;105990;1252;74355;-63
2023/03/30 23:26:40;;;;;;;4.30;3.50;;;;;;;0.68;100.00;99257.06;105907;1253;67517;-64
2023/03/30 23:29:08;;;;;;;4.80;3.00;;;;;;;0.68;100.00;99259.44;105885;1253;73895;-64
2023/03/30 23:31:37;;;;;;;5.40;3.80;;;;;;;0.68;100.00;99256.73;106040;1256;60815;-63
2023/03/30 23:34:08;;;;;;;5.40;3.90;;;;;;;0.67;100.00;99253.86;106046;1255;60548;-65
2023/03/30 23:36:36;;;;;;;5.20;3.80;;;;;;;0.67;100.00;99254.09;105753;1256;74233;-64
2023/03/30 23:39:04;;;;;;;6.50;4.60;;;;;;;0.66;100.00;99252.97;105869;1256;68320;-63
2023/03/30 23:41:33;;;;;;;6.40;4.30;;;;;;;0.64;100.00;99250.09;105831;1253;73272;-62
2023/03/30 23:44:02;;;;;;;6.10;4.10;;;;;;;0.63;100.00;99251.39;106247;1251;62521;-63
2023/03/30 23:46:30;;;;;;;6.60;4.60;;;;;;;0.63;100.00;99251.93;105914;1254;61759;-64
2023/03/30 23:49:00;;;;;;;6.90;4.10;;;;;;;0.60;100.00;99246.65;105934;1251;73694;-63
2023/03/30 23:51:29;;;;;;;6.40;4.50;;;;;;;0.61;100.00;99248.65;105788;1256;67584;-63
2023/03/30 23:54:04;;;;;;;8.20;4.70;;;;;;;0.60;100.00;99247.88;105935;1256;73371;-63
2023/03/30 23:56:37;;;;;;;6.50;4.60;;;;;;;0.60;100.00;99251.10;105862;1253;62192;-63
2023/03/30 23:59:07;;;;;;;6.30;4.40;;;;;;;0.59;100.00;99245.61;105689;1251;60638;-63
